sensor_id;sensor_type;location;lat;lon;timestamp;temperature;humidity
7167;DHT22;3625;51.762;14.320;2022-09-27T00:11:26;11.90;99.90
7167;DHT22;3625;51.762;14.320;2022-09-27T00:39:02;11.90;99.90
7167;DHT22;3625;51.762;14.320;2022-09-27T00:41:33;11.90;99.90
7167;DHT22;3625;51.762;14.320;2022-09-27T00:46:59;11.90;99.90
7167;DHT22;3625;51.762;14.320;2022-09-27T00:52:12;11.90;99.90
7167;DHT22;3625;51.762;14.320;2022-09-27T00:54:49;11.90;99.90
7167;DHT22;3625;51.762;14.320;2022-09-27T01:35:53;11.90;99.90
7167;DHT22;3625;51.762;14.320;2022-09-27T02:24:12;12.10;99.90
7167;DHT22;3625;51.762;14.320;2022-09-27T02:58:49;12.20;99.90
7167;DHT22;3625;51.762;14.320;2022-09-27T03:01:54;12.20;99.90
7167;DHT22;3625;51.762;14.320;2022-09-27T03:04:52;12.20;99.90
7167;DHT22;3625;51.762;14.320;2022-09-27T03:09:56;12.20;99.90
7167;DHT22;3625;51.762;14.320;2022-09-27T04:03:42;12.10;99.90
7167;DHT22;3625;51.762;14.320;2022-09-27T04:06:27;12.10;99.90
7167;DHT22;3625;51.762;14.320;2022-09-27T04:35:36;12.00;99.90
7167;DHT22;3625;51.762;14.320;2022-09-27T04:45:53;12.20;99.90
7167;DHT22;3625;51.762;14.320;2022-09-27T05:35:50;12.40;99.90
7167;DHT22;3625;51.762;14.320;2022-09-27T07:10:30;13.30;99.90
7167;DHT22;3625;51.762;14.320;2022-09-27T07:23:09;13.40;99.90
7167;DHT22;3625;51.762;14.320;2022-09-27T07:28:12;13.30;99.90
7167;DHT22;3625;51.762;14.320;2022-09-27T08:47:45;16.90;99.90
7167;DHT22;3625;51.762;14.320;2022-09-27T08:53:01;17.00;99.90
7167;DHT22;3625;51.762;14.320;2022-09-27T08:58:14;17.00;99.90
7167;DHT22;3625;51.762;14.320;2022-09-27T09:00:50;17.00;99.90
7167;DHT22;3625;51.762;14.320;2022-09-27T09:03:26;17.20;99.90
7167;DHT22;3625;51.762;14.320;2022-09-27T09:06:10;17.40;99.90
7167;DHT22;3625;51.762;14.320;2022-09-27T09:08:55;17.30;99.90
7167;DHT22;3625;51.762;14.320;2022-09-27T09:11:44;17.10;99.90
7167;DHT22;3625;51.762;14.320;2022-09-27T09:14:54;17.00;99.90
7167;DHT22;3625;51.762;14.320;2022-09-27T09:21:10;17.20;99.90
7167;DHT22;3625;51.762;14.320;2022-09-27T09:24:07;17.30;99.90
7167;DHT22;3625;51.762;14.320;2022-09-27T09:26:54;17.60;99.90
7167;DHT22;3625;51.762;14.320;2022-09-27T09:29:57;17.60;99.90
7167;DHT22;3625;51.762;14.320;2022-09-27T09:32:47;15.70;99.90
7167;DHT22;3625;51.762;14.320;2022-09-27T09:35:33;17.40;99.90
7167;DHT22;3625;51.762;14.320;2022-09-27T09:38:12;17.10;99.90
7167;DHT22;3625;51.762;14.320;2022-09-27T09:40:48;17.40;99.90
7167;DHT22;3625;51.762;14.320;2022-09-27T09:43:29;17.60;99.90
7167;DHT22;3625;51.762;14.320;2022-09-27T09:46:09;18.00;99.90
7167;DHT22;3625;51.762;14.320;2022-09-27T09:48:46;18.30;99.90
7167;DHT22;3625;51.762;14.320;2022-09-27T09:51:22;18.50;99.90
7167;DHT22;3625;51.762;14.320;2022-09-27T09:53:59;18.50;99.90
7167;DHT22;3625;51.762;14.320;2022-09-27T09:56:41;18.20;99.90
7167;DHT22;3625;51.762;14.320;2022-09-27T09:59:17;17.90;99.90
7167;DHT22;3625;51.762;14.320;2022-09-27T10:01:54;17.80;99.90
7167;DHT22;3625;51.762;14.320;2022-09-27T10:04:28;17.80;99.90
7167;DHT22;3625;51.762;14.320;2022-09-27T10:07:00;18.10;99.90
7167;DHT22;3625;51.762;14.320;2022-09-27T10:09:38;18.50;99.90
7167;DHT22;3625;51.762;14.320;2022-09-27T10:12:28;18.80;99.90
7167;DHT22;3625;51.762;14.320;2022-09-27T10:15:02;18.70;99.90
7167;DHT22;3625;51.762;14.320;2022-09-27T10:17:36;18.40;99.90
7167;DHT22;3625;51.762;14.320;2022-09-27T10:20:18;18.20;99.90
7167;DHT22;3625;51.762;14.320;2022-09-27T10:22:58;18.30;99.90
7167;DHT22;3625;51.762;14.320;2022-09-27T10:25:53;18.70;99.90
7167;DHT22;3625;51.762;14.320;2022-09-27T10:28:43;19.00;99.90
7167;DHT22;3625;51.762;14.320;2022-09-27T10:31:19;18.80;99.90
7167;DHT22;3625;51.762;14.320;2022-09-27T10:34:01;18.90;99.90
7167;DHT22;3625;51.762;14.320;2022-09-27T10:36:45;19.30;99.90
7167;DHT22;3625;51.762;14.320;2022-09-27T10:39:21;19.80;99.90
7167;DHT22;3625;51.762;14.320;2022-09-27T10:41:52;20.00;99.90
7167;DHT22;3625;51.762;14.320;2022-09-27T10:44:31;19.70;99.90
7167;DHT22;3625;51.762;14.320;2022-09-27T10:47:24;19.60;99.90
7167;DHT22;3625;51.762;14.320;2022-09-27T10:50:23;19.70;99.90
7167;DHT22;3625;51.762;14.320;2022-09-27T10:53:24;19.50;99.90
7167;DHT22;3625;51.762;14.320;2022-09-27T10:56:03;19.30;99.90
7167;DHT22;3625;51.762;14.320;2022-09-27T10:58:35;18.80;99.90
7167;DHT22;3625;51.762;14.320;2022-09-27T11:01:10;18.20;99.90
7167;DHT22;3625;51.762;14.320;2022-09-27T11:03:59;17.70;99.90
7167;DHT22;3625;51.762;14.320;2022-09-27T11:06:34;17.20;99.90
7167;DHT22;3625;51.762;14.320;2022-09-27T11:09:16;16.80;99.90
7167;DHT22;3625;51.762;14.320;2022-09-27T11:12:05;16.40;99.90
7167;DHT22;3625;51.762;14.320;2022-09-27T11:14:39;15.70;99.90
7167;DHT22;3625;51.762;14.320;2022-09-27T11:17:15;15.20;99.90
7167;DHT22;3625;51.762;14.320;2022-09-27T11:20:10;14.90;99.90
7167;DHT22;3625;51.762;14.320;2022-09-27T11:23:30;14.80;99.90
7167;DHT22;3625;51.762;14.320;2022-09-27T11:26:33;14.90;99.90
7167;DHT22;3625;51.762;14.320;2022-09-27T11:29:21;15.00;99.90
7167;DHT22;3625;51.762;14.320;2022-09-27T11:32:36;15.30;99.90
7167;DHT22;3625;51.762;14.320;2022-09-27T11:35:32;15.90;99.90
7167;DHT22;3625;51.762;14.320;2022-09-27T11:38:17;16.60;99.90
7167;DHT22;3625;51.762;14.320;2022-09-27T11:41:26;17.30;99.90
7167;DHT22;3625;51.762;14.320;2022-09-27T11:44:36;17.60;99.90
7167;DHT22;3625;51.762;14.320;2022-09-27T11:47:19;17.40;99.90
7167;DHT22;3625;51.762;14.320;2022-09-27T11:50:19;17.50;99.90
7167;DHT22;3625;51.762;14.320;2022-09-27T11:53:15;17.70;99.90
7167;DHT22;3625;51.762;14.320;2022-09-27T11:56:05;17.70;99.90
7167;DHT22;3625;51.762;14.320;2022-09-27T11:58:51;17.80;99.90
7167;DHT22;3625;51.762;14.320;2022-09-27T12:01:38;17.80;99.90
7167;DHT22;3625;51.762;14.320;2022-09-27T12:07:32;16.90;99.90
7167;DHT22;3625;51.762;14.320;2022-09-27T12:10:10;16.00;99.90
7167;DHT22;3625;51.762;14.320;2022-09-27T12:12:49;15.60;99.90
7167;DHT22;3625;51.762;14.320;2022-09-27T12:15:22;15.20;99.90
7167;DHT22;3625;51.762;14.320;2022-09-27T12:18:04;15.00;99.90
7167;DHT22;3625;51.762;14.320;2022-09-27T12:20:49;15.80;99.90
7167;DHT22;3625;51.762;14.320;2022-09-27T12:23:24;15.50;99.90
7167;DHT22;3625;51.762;14.320;2022-09-27T12:26:33;15.90;99.90
7167;DHT22;3625;51.762;14.320;2022-09-27T12:29:13;16.40;99.90
7167;DHT22;3625;51.762;14.320;2022-09-27T12:31:48;16.80;99.90
7167;DHT22;3625;51.762;14.320;2022-09-27T12:34:31;17.00;99.90
7167;DHT22;3625;51.762;14.320;2022-09-27T12:37:11;16.90;99.90
7167;DHT22;3625;51.762;14.320;2022-09-27T12:39:49;15.90;99.90
7167;DHT22;3625;51.762;14.320;2022-09-27T12:42:29;15.90;99.90
7167;DHT22;3625;51.762;14.320;2022-09-27T12:45:11;15.50;99.90
7167;DHT22;3625;51.762;14.320;2022-09-27T12:47:52;15.10;99.90
7167;DHT22;3625;51.762;14.320;2022-09-27T12:50:34;14.80;99.90
7167;DHT22;3625;51.762;14.320;2022-09-27T12:53:11;14.60;99.90
7167;DHT22;3625;51.762;14.320;2022-09-27T12:56:17;14.60;99.90
7167;DHT22;3625;51.762;14.320;2022-09-27T12:59:22;14.90;99.90
7167;DHT22;3625;51.762;14.320;2022-09-27T13:06:15;15.50;99.90
7167;DHT22;3625;51.762;14.320;2022-09-27T13:12:17;15.30;99.90
7167;DHT22;3625;51.762;14.320;2022-09-27T13:14:59;14.50;99.90
7167;DHT22;3625;51.762;14.320;2022-09-27T13:17:50;14.30;99.90
7167;DHT22;3625;51.762;14.320;2022-09-27T13:20:44;14.40;99.90
7167;DHT22;3625;51.762;14.320;2022-09-27T13:23:56;14.40;99.90
7167;DHT22;3625;51.762;14.320;2022-09-27T13:26:54;14.10;99.90
7167;DHT22;3625;51.762;14.320;2022-09-27T13:29:31;13.90;99.90
7167;DHT22;3625;51.762;14.320;2022-09-27T13:32:24;14.00;99.90
7167;DHT22;3625;51.762;14.320;2022-09-27T13:35:12;14.20;99.90
7167;DHT22;3625;51.762;14.320;2022-09-27T13:37:54;14.60;99.90
7167;DHT22;3625;51.762;14.320;2022-09-27T13:40:47;15.00;99.90
7167;DHT22;3625;51.762;14.320;2022-09-27T13:43:45;15.30;99.90
7167;DHT22;3625;51.762;14.320;2022-09-27T13:46:33;15.00;99.90
7167;DHT22;3625;51.762;14.320;2022-09-27T13:49:13;14.60;99.90
7167;DHT22;3625;51.762;14.320;2022-09-27T13:52:18;14.40;99.90
7167;DHT22;3625;51.762;14.320;2022-09-27T13:55:37;14.10;99.90
7167;DHT22;3625;51.762;14.320;2022-09-27T13:58:41;13.90;99.90
7167;DHT22;3625;51.762;14.320;2022-09-27T14:01:52;13.70;99.90
7167;DHT22;3625;51.762;14.320;2022-09-27T14:04:36;13.70;99.90
7167;DHT22;3625;51.762;14.320;2022-09-27T14:07:13;13.80;99.90
7167;DHT22;3625;51.762;14.320;2022-09-27T14:09:46;13.70;99.90
7167;DHT22;3625;51.762;14.320;2022-09-27T14:12:26;13.60;99.90
7167;DHT22;3625;51.762;14.320;2022-09-27T14:15:00;14.20;99.90
7167;DHT22;3625;51.762;14.320;2022-09-27T14:17:33;14.10;99.90
7167;DHT22;3625;51.762;14.320;2022-09-27T14:20:03;13.90;99.90
7167;DHT22;3625;51.762;14.320;2022-09-27T14:22:34;14.00;99.90
7167;DHT22;3625;51.762;14.320;2022-09-27T14:25:16;14.20;99.90
7167;DHT22;3625;51.762;14.320;2022-09-27T14:27:49;14.50;99.90
7167;DHT22;3625;51.762;14.320;2022-09-27T14:30:42;14.70;99.90
7167;DHT22;3625;51.762;14.320;2022-09-27T14:33:34;13.80;99.90
7167;DHT22;3625;51.762;14.320;2022-09-27T14:36:16;14.60;99.90
7167;DHT22;3625;51.762;14.320;2022-09-27T14:39:19;14.50;99.90
7167;DHT22;3625;51.762;14.320;2022-09-27T14:41:51;14.50;99.90
7167;DHT22;3625;51.762;14.320;2022-09-27T14:44:20;14.60;99.90
7167;DHT22;3625;51.762;14.320;2022-09-27T14:47:08;14.60;99.90
7167;DHT22;3625;51.762;14.320;2022-09-27T14:49:46;14.40;99.90
7167;DHT22;3625;51.762;14.320;2022-09-27T14:52:24;14.10;99.90
7167;DHT22;3625;51.762;14.320;2022-09-27T14:54:59;13.80;99.90
7167;DHT22;3625;51.762;14.320;2022-09-27T14:57:30;13.60;99.90
7167;DHT22;3625;51.762;14.320;2022-09-27T15:00:14;13.40;99.90
7167;DHT22;3625;51.762;14.320;2022-09-27T15:02:46;12.90;99.90
7167;DHT22;3625;51.762;14.320;2022-09-27T15:05:20;12.30;99.90
7167;DHT22;3625;51.762;14.320;2022-09-27T15:07:52;11.70;99.90
7167;DHT22;3625;51.762;14.320;2022-09-27T15:10:26;10.90;99.90
7167;DHT22;3625;51.762;14.320;2022-09-27T15:13:02;10.90;99.90
7167;DHT22;3625;51.762;14.320;2022-09-27T15:15:39;10.70;99.90
7167;DHT22;3625;51.762;14.320;2022-09-27T15:18:29;11.90;99.90
7167;DHT22;3625;51.762;14.320;2022-09-27T15:21:02;10.50;99.90
7167;DHT22;3625;51.762;14.320;2022-09-27T15:23:35;10.50;99.90
7167;DHT22;3625;51.762;14.320;2022-09-27T15:26:09;10.50;99.90
7167;DHT22;3625;51.762;14.320;2022-09-27T15:28:43;10.50;99.90
7167;DHT22;3625;51.762;14.320;2022-09-27T15:31:14;10.50;99.90
7167;DHT22;3625;51.762;14.320;2022-09-27T15:33:52;9.70;99.90
7167;DHT22;3625;51.762;14.320;2022-09-27T15:39:33;10.60;99.90
7167;DHT22;3625;51.762;14.320;2022-09-27T15:42:08;10.50;99.90
7167;DHT22;3625;51.762;14.320;2022-09-27T15:44:45;10.70;99.90
7167;DHT22;3625;51.762;14.320;2022-09-27T15:47:39;10.70;99.90
7167;DHT22;3625;51.762;14.320;2022-09-27T15:50:33;10.80;99.90
7167;DHT22;3625;51.762;14.320;2022-09-27T15:53:04;10.90;99.90
7167;DHT22;3625;51.762;14.320;2022-09-27T15:55:40;11.00;99.90
7167;DHT22;3625;51.762;14.320;2022-09-27T15:58:14;11.00;99.90
7167;DHT22;3625;51.762;14.320;2022-09-27T16:00:54;11.00;99.90
7167;DHT22;3625;51.762;14.320;2022-09-27T16:03:25;11.10;99.90
7167;DHT22;3625;51.762;14.320;2022-09-27T16:05:55;11.20;99.90
7167;DHT22;3625;51.762;14.320;2022-09-27T16:08:27;11.20;99.90
7167;DHT22;3625;51.762;14.320;2022-09-27T16:10:58;11.20;99.90
7167;DHT22;3625;51.762;14.320;2022-09-27T16:13:29;11.20;99.90
7167;DHT22;3625;51.762;14.320;2022-09-27T16:16:01;11.30;99.90
7167;DHT22;3625;51.762;14.320;2022-09-27T16:18:31;11.20;99.90
7167;DHT22;3625;51.762;14.320;2022-09-27T16:21:00;11.10;99.90
7167;DHT22;3625;51.762;14.320;2022-09-27T16:23:34;10.90;99.90
7167;DHT22;3625;51.762;14.320;2022-09-27T16:26:11;10.70;99.90
7167;DHT22;3625;51.762;14.320;2022-09-27T16:28:42;10.70;99.90
7167;DHT22;3625;51.762;14.320;2022-09-27T16:31:12;10.60;99.90
7167;DHT22;3625;51.762;14.320;2022-09-27T16:33:47;10.50;99.90
7167;DHT22;3625;51.762;14.320;2022-09-27T16:36:16;10.40;99.90
7167;DHT22;3625;51.762;14.320;2022-09-27T16:38:51;10.40;99.90
7167;DHT22;3625;51.762;14.320;2022-09-27T16:41:21;10.30;99.90
7167;DHT22;3625;51.762;14.320;2022-09-27T16:46:20;11.10;99.90
7167;DHT22;3625;51.762;14.320;2022-09-27T16:51:20;10.20;99.90
7167;DHT22;3625;51.762;14.320;2022-09-27T16:54:11;10.20;99.90
7167;DHT22;3625;51.762;14.320;2022-09-27T16:56:44;10.20;99.90
7167;DHT22;3625;51.762;14.320;2022-09-27T16:59:16;10.20;99.90
7167;DHT22;3625;51.762;14.320;2022-09-27T17:01:47;10.40;99.90
7167;DHT22;3625;51.762;14.320;2022-09-27T17:04:16;10.20;99.90
7167;DHT22;3625;51.762;14.320;2022-09-27T17:06:45;10.20;99.90
7167;DHT22;3625;51.762;14.320;2022-09-27T17:09:16;10.20;99.90
7167;DHT22;3625;51.762;14.320;2022-09-27T17:11:45;10.50;99.90
7167;DHT22;3625;51.762;14.320;2022-09-27T17:14:14;10.20;99.90
7167;DHT22;3625;51.762;14.320;2022-09-27T17:16:45;10.20;99.90
7167;DHT22;3625;51.762;14.320;2022-09-27T17:19:15;10.20;99.90
7167;DHT22;3625;51.762;14.320;2022-09-27T17:21:45;10.10;99.90
7167;DHT22;3625;51.762;14.320;2022-09-27T17:24:16;10.20;99.90
7167;DHT22;3625;51.762;14.320;2022-09-27T17:26:45;10.20;99.90
7167;DHT22;3625;51.762;14.320;2022-09-27T17:29:14;10.20;99.90
7167;DHT22;3625;51.762;14.320;2022-09-27T17:31:43;10.20;99.90
7167;DHT22;3625;51.762;14.320;2022-09-27T17:34:13;10.10;99.90
7167;DHT22;3625;51.762;14.320;2022-09-27T17:36:44;10.00;99.90
7167;DHT22;3625;51.762;14.320;2022-09-27T17:39:19;9.90;99.90
7167;DHT22;3625;51.762;14.320;2022-09-27T17:46:49;8.50;99.90
7167;DHT22;3625;51.762;14.320;2022-09-27T17:49:39;9.40;99.90
7167;DHT22;3625;51.762;14.320;2022-09-27T17:52:25;9.20;99.90
7167;DHT22;3625;51.762;14.320;2022-09-27T17:54:56;9.10;99.90
7167;DHT22;3625;51.762;14.320;2022-09-27T17:57:25;8.90;99.90
7167;DHT22;3625;51.762;14.320;2022-09-27T18:00:08;8.90;99.90
7167;DHT22;3625;51.762;14.320;2022-09-27T18:02:40;8.80;99.90
7167;DHT22;3625;51.762;14.320;2022-09-27T18:07:48;8.70;99.90
7167;DHT22;3625;51.762;14.320;2022-09-27T18:10:22;8.50;99.90
7167;DHT22;3625;51.762;14.320;2022-09-27T18:17:25;8.10;99.90
7167;DHT22;3625;51.762;14.320;2022-09-27T18:20:26;8.30;99.90
7167;DHT22;3625;51.762;14.320;2022-09-27T18:23:30;8.20;99.90
7167;DHT22;3625;51.762;14.320;2022-09-27T18:26:42;8.10;99.90
7167;DHT22;3625;51.762;14.320;2022-09-27T18:30:00;8.00;99.90
7167;DHT22;3625;51.762;14.320;2022-09-27T18:33:11;8.00;99.90
7167;DHT22;3625;51.762;14.320;2022-09-27T18:36:24;7.90;99.90
7167;DHT22;3625;51.762;14.320;2022-09-27T18:39:48;7.90;99.90
7167;DHT22;3625;51.762;14.320;2022-09-27T18:46:34;7.90;99.90
7167;DHT22;3625;51.762;14.320;2022-09-27T18:49:37;7.90;99.90
7167;DHT22;3625;51.762;14.320;2022-09-27T18:52:35;7.80;99.90
7167;DHT22;3625;51.762;14.320;2022-09-27T18:55:51;7.80;99.90
7167;DHT22;3625;51.762;14.320;2022-09-27T18:58:53;7.80;99.90
7167;DHT22;3625;51.762;14.320;2022-09-27T19:05:24;7.70;99.90
7167;DHT22;3625;51.762;14.320;2022-09-27T19:08:27;7.80;99.90
7167;DHT22;3625;51.762;14.320;2022-09-27T19:11:28;7.90;99.90
7167;DHT22;3625;51.762;14.320;2022-09-27T19:14:32;7.90;99.90
7167;DHT22;3625;51.762;14.320;2022-09-27T19:17:00;7.80;99.90
7167;DHT22;3625;51.762;14.320;2022-09-27T19:22:01;7.70;99.90
7167;DHT22;3625;51.762;14.320;2022-09-27T19:24:31;7.80;99.90
7167;DHT22;3625;51.762;14.320;2022-09-27T19:27:03;7.80;99.90
7167;DHT22;3625;51.762;14.320;2022-09-27T19:29:33;7.90;99.90
7167;DHT22;3625;51.762;14.320;2022-09-27T19:32:02;7.60;99.90
7167;DHT22;3625;51.762;14.320;2022-09-27T19:34:31;7.90;99.90
7167;DHT22;3625;51.762;14.320;2022-09-27T19:37:00;8.00;99.90
7167;DHT22;3625;51.762;14.320;2022-09-27T19:39:32;8.00;99.90
7167;DHT22;3625;51.762;14.320;2022-09-27T19:42:01;7.90;99.90
7167;DHT22;3625;51.762;14.320;2022-09-27T19:44:29;7.80;99.90
7167;DHT22;3625;51.762;14.320;2022-09-27T19:47:00;7.80;99.90
7167;DHT22;3625;51.762;14.320;2022-09-27T19:49:29;6.50;99.90
7167;DHT22;3625;51.762;14.320;2022-09-27T19:51:58;7.70;99.90
7167;DHT22;3625;51.762;14.320;2022-09-27T19:54:27;7.60;99.90
7167;DHT22;3625;51.762;14.320;2022-09-27T19:56:59;7.60;99.90
7167;DHT22;3625;51.762;14.320;2022-09-27T19:59:27;7.50;99.90
7167;DHT22;3625;51.762;14.320;2022-09-27T20:01:56;7.50;99.90
7167;DHT22;3625;51.762;14.320;2022-09-27T20:04:27;7.40;99.90
7167;DHT22;3625;51.762;14.320;2022-09-27T20:06:56;7.40;99.90
7167;DHT22;3625;51.762;14.320;2022-09-27T20:09:25;7.40;99.90
7167;DHT22;3625;51.762;14.320;2022-09-27T20:11:53;7.30;99.90
7167;DHT22;3625;51.762;14.320;2022-09-27T20:14:23;7.30;99.90
7167;DHT22;3625;51.762;14.320;2022-09-27T20:16:51;7.30;99.90
7167;DHT22;3625;51.762;14.320;2022-09-27T20:19:20;7.20;99.90
7167;DHT22;3625;51.762;14.320;2022-09-27T20:21:50;7.20;99.90
7167;DHT22;3625;51.762;14.320;2022-09-27T20:24:19;7.20;99.90
7167;DHT22;3625;51.762;14.320;2022-09-27T20:26:49;7.20;99.90
7167;DHT22;3625;51.762;14.320;2022-09-27T20:29:19;7.20;99.90
7167;DHT22;3625;51.762;14.320;2022-09-27T20:31:48;7.20;99.90
7167;DHT22;3625;51.762;14.320;2022-09-27T20:34:37;7.10;99.90
7167;DHT22;3625;51.762;14.320;2022-09-27T20:37:07;7.00;99.90
7167;DHT22;3625;51.762;14.320;2022-09-27T20:39:36;7.00;99.90
7167;DHT22;3625;51.762;14.320;2022-09-27T20:42:05;6.90;99.90
7167;DHT22;3625;51.762;14.320;2022-09-27T20:44:33;6.90;99.90
7167;DHT22;3625;51.762;14.320;2022-09-27T20:47:02;6.80;99.90
7167;DHT22;3625;51.762;14.320;2022-09-27T20:52:01;6.80;99.90
7167;DHT22;3625;51.762;14.320;2022-09-27T20:54:31;6.80;99.90
7167;DHT22;3625;51.762;14.320;2022-09-27T20:57:00;6.90;99.90
7167;DHT22;3625;51.762;14.320;2022-09-27T20:59:29;6.90;99.90
7167;DHT22;3625;51.762;14.320;2022-09-27T21:01:59;7.00;99.90
7167;DHT22;3625;51.762;14.320;2022-09-27T21:04:28;7.00;99.90
7167;DHT22;3625;51.762;14.320;2022-09-27T21:06:58;7.00;99.90
7167;DHT22;3625;51.762;14.320;2022-09-27T21:09:30;6.90;99.90
7167;DHT22;3625;51.762;14.320;2022-09-27T21:12:00;6.90;99.90
7167;DHT22;3625;51.762;14.320;2022-09-27T21:14:29;6.90;99.90
7167;DHT22;3625;51.762;14.320;2022-09-27T21:16:58;6.90;99.90
7167;DHT22;3625;51.762;14.320;2022-09-27T21:19:34;6.80;99.90
7167;DHT22;3625;51.762;14.320;2022-09-27T21:22:04;6.80;99.90
7167;DHT22;3625;51.762;14.320;2022-09-27T21:24:38;6.70;99.90
7167;DHT22;3625;51.762;14.320;2022-09-27T21:27:08;6.70;99.90
7167;DHT22;3625;51.762;14.320;2022-09-27T21:29:40;6.70;99.90
7167;DHT22;3625;51.762;14.320;2022-09-27T21:32:12;6.60;99.90
7167;DHT22;3625;51.762;14.320;2022-09-27T21:34:41;6.60;99.90
7167;DHT22;3625;51.762;14.320;2022-09-27T21:37:11;6.60;99.90
7167;DHT22;3625;51.762;14.320;2022-09-27T21:39:42;6.50;99.90
7167;DHT22;3625;51.762;14.320;2022-09-27T21:42:11;6.50;99.90
7167;DHT22;3625;51.762;14.320;2022-09-27T21:44:42;6.50;99.90
7167;DHT22;3625;51.762;14.320;2022-09-27T21:47:12;6.50;99.90
7167;DHT22;3625;51.762;14.320;2022-09-27T21:49:41;6.50;99.90
7167;DHT22;3625;51.762;14.320;2022-09-27T21:54:41;6.40;99.90
7167;DHT22;3625;51.762;14.320;2022-09-27T21:57:10;6.40;99.90
7167;DHT22;3625;51.762;14.320;2022-09-27T21:59:39;6.40;99.90
7167;DHT22;3625;51.762;14.320;2022-09-27T22:02:08;6.40;99.90
7167;DHT22;3625;51.762;14.320;2022-09-27T22:07:09;6.30;99.90
7167;DHT22;3625;51.762;14.320;2022-09-27T22:09:38;6.30;99.90
7167;DHT22;3625;51.762;14.320;2022-09-27T22:12:08;6.30;99.90
7167;DHT22;3625;51.762;14.320;2022-09-27T22:14:37;6.30;99.90
7167;DHT22;3625;51.762;14.320;2022-09-27T22:17:06;6.30;99.90
7167;DHT22;3625;51.762;14.320;2022-09-27T22:22:04;6.30;99.90
7167;DHT22;3625;51.762;14.320;2022-09-27T22:24:33;6.30;99.90
7167;DHT22;3625;51.762;14.320;2022-09-27T22:27:07;6.30;99.90
7167;DHT22;3625;51.762;14.320;2022-09-27T22:29:36;6.30;99.90
7167;DHT22;3625;51.762;14.320;2022-09-27T22:32:05;5.50;99.90
7167;DHT22;3625;51.762;14.320;2022-09-27T22:34:34;6.30;99.90
7167;DHT22;3625;51.762;14.320;2022-09-27T22:37:03;6.40;99.90
7167;DHT22;3625;51.762;14.320;2022-09-27T22:39:31;6.40;99.90
7167;DHT22;3625;51.762;14.320;2022-09-27T22:42:00;6.60;99.90
7167;DHT22;3625;51.762;14.320;2022-09-27T22:44:30;6.70;99.90
7167;DHT22;3625;51.762;14.320;2022-09-27T22:47:03;6.90;99.90
7167;DHT22;3625;51.762;14.320;2022-09-27T22:49:32;7.00;99.90
7167;DHT22;3625;51.762;14.320;2022-09-27T22:52:01;7.20;99.90
7167;DHT22;3625;51.762;14.320;2022-09-27T22:54:30;7.30;99.90
7167;DHT22;3625;51.762;14.320;2022-09-27T22:56:58;7.50;99.90
7167;DHT22;3625;51.762;14.320;2022-09-27T22:59:27;7.50;99.90
7167;DHT22;3625;51.762;14.320;2022-09-27T23:01:58;7.60;99.90
7167;DHT22;3625;51.762;14.320;2022-09-27T23:04:26;7.50;99.90
7167;DHT22;3625;51.762;14.320;2022-09-27T23:06:55;7.40;99.90
7167;DHT22;3625;51.762;14.320;2022-09-27T23:09:24;7.30;99.90
7167;DHT22;3625;51.762;14.320;2022-09-27T23:11:52;7.20;99.90
7167;DHT22;3625;51.762;14.320;2022-09-27T23:14:21;7.10;99.90
7167;DHT22;3625;51.762;14.320;2022-09-27T23:16:53;7.00;99.90
7167;DHT22;3625;51.762;14.320;2022-09-27T23:19:22;7.00;99.90
7167;DHT22;3625;51.762;14.320;2022-09-27T23:24:21;6.80;99.90
7167;DHT22;3625;51.762;14.320;2022-09-27T23:26:50;6.80;99.90
7167;DHT22;3625;51.762;14.320;2022-09-27T23:29:40;6.70;99.90
7167;DHT22;3625;51.762;14.320;2022-09-27T23:32:11;6.60;99.90
7167;DHT22;3625;51.762;14.320;2022-09-27T23:34:40;6.60;99.90
7167;DHT22;3625;51.762;14.320;2022-09-27T23:37:09;6.60;99.90
7167;DHT22;3625;51.762;14.320;2022-09-27T23:39:38;6.50;99.90
7167;DHT22;3625;51.762;14.320;2022-09-27T23:42:07;6.50;99.90
7167;DHT22;3625;51.762;14.320;2022-09-27T23:44:35;6.50;99.90
7167;DHT22;3625;51.762;14.320;2022-09-27T23:47:04;6.40;99.90
7167;DHT22;3625;51.762;14.320;2022-09-27T23:49:34;6.40;99.90
7167;DHT22;3625;51.762;14.320;2022-09-27T23:52:04;6.30;99.90
7167;DHT22;3625;51.762;14.320;2022-09-27T23:54:33;6.20;99.90
7167;DHT22;3625;51.762;14.320;2022-09-27T23:57:02;6.20;99.90
7167;DHT22;3625;51.762;14.320;2022-09-27T23:59:31;6.20;99.90
